Time;durP1;ratioP1;P1;durP2;ratioP2;P2;SDS_P1;SDS_P2;PMS_P1;PMS_P2;Temp;Humidity;BMP_temperature;BMP_pressure;BME280_temperature;BME280_humidity;BME280_pressure;Samples;Min_cycle;Max_cycle;Signal;HPM_P1;HPM_P2
2023/01/22 00:01:18;;;;;;;80.72;44.15;;;;;;;-3.84;100.00;103142.97;6137893;23;20013;-83
2023/01/22 00:03:44;;;;;;;82.15;45.83;;;;;;;-3.87;100.00;103145.41;6140884;23;20017;-83
2023/01/22 00:06:10;;;;;;;81.93;45.20;;;;;;;-3.87;100.00;103144.53;6144709;23;19994;-82
2023/01/22 00:08:36;;;;;;;80.32;44.90;;;;;;;-3.88;100.00;103150.56;6147207;23;20267;-83
2023/01/22 00:11:02;;;;;;;82.65;46.25;;;;;;;-3.87;100.00;103147.13;6144616;23;20021;-82
2023/01/22 00:13:27;;;;;;;84.80;47.25;;;;;;;-3.86;100.00;103141.09;6147271;23;19994;-82
2023/01/22 00:15:55;;;;;;;85.25;46.42;;;;;;;-3.86;100.00;103143.69;6147065;23;20012;-82
2023/01/22 00:18:20;;;;;;;82.32;45.38;;;;;;;-3.82;100.00;103148.22;6144587;23;20042;-83
2023/01/22 00:20:51;;;;;;;81.95;45.42;;;;;;;-3.75;100.00;103145.09;6145103;23;20009;-83
2023/01/22 00:23:16;;;;;;;80.43;45.10;;;;;;;-3.66;100.00;103142.88;6134525;23;20089;-82
2023/01/22 00:25:42;;;;;;;83.38;45.50;;;;;;;-3.59;100.00;103154.47;6123660;23;20578;-83
2023/01/22 00:28:08;;;;;;;79.28;45.22;;;;;;;-3.49;100.00;103151.44;6127373;23;20001;-83
2023/01/22 00:30:33;;;;;;;79.82;46.08;;;;;;;-3.40;100.00;103154.44;6126474;23;20379;-82
2023/01/22 00:32:58;;;;;;;77.22;44.58;;;;;;;-3.36;100.00;103152.84;6123957;23;20010;-82
2023/01/22 00:35:24;;;;;;;76.57;44.45;;;;;;;-3.36;100.00;103143.31;6124365;23;20029;-83
2023/01/22 00:37:49;;;;;;;67.40;41.80;;;;;;;-3.32;100.00;103146.94;6123353;23;20064;-82
2023/01/22 00:40:15;;;;;;;71.38;42.97;;;;;;;-3.28;100.00;103151.47;6119768;23;20100;-83
2023/01/22 00:42:41;;;;;;;65.90;41.47;;;;;;;-3.32;100.00;103140.03;6118519;23;20436;-82
2023/01/22 00:45:06;;;;;;;68.32;41.20;;;;;;;-3.31;100.00;103140.91;6119999;23;20010;-83
2023/01/22 00:47:32;;;;;;;66.45;42.10;;;;;;;-3.33;100.00;103134.75;6118972;23;20361;-82
2023/01/22 00:49:58;;;;;;;68.40;41.28;;;;;;;-3.37;100.00;103135.47;6118393;23;20006;-83
2023/01/22 00:52:23;;;;;;;66.40;40.38;;;;;;;-3.39;100.00;103142.28;6119514;23;20428;-83
2023/01/22 00:54:48;;;;;;;68.93;42.63;;;;;;;-3.46;100.00;103135.06;6119305;23;20016;-83
2023/01/22 00:57:14;;;;;;;68.25;43.22;;;;;;;-3.54;100.00;103132.13;6122123;23;20002;-83
2023/01/22 00:59:39;;;;;;;66.57;41.95;;;;;;;-3.52;100.00;103133.06;6120350;23;20072;-82
2023/01/22 01:02:05;;;;;;;69.55;42.90;;;;;;;-3.57;100.00;103132.88;6118574;23;20006;-83
2023/01/22 01:04:31;;;;;;;70.82;43.83;;;;;;;-3.65;100.00;103123.81;6116417;23;20013;-83
2023/01/22 01:06:56;;;;;;;68.93;41.58;;;;;;;-3.68;100.00;103122.81;6116370;23;20010;-83
2023/01/22 01:09:22;;;;;;;69.70;43.85;;;;;;;-3.69;100.00;103121.03;6115502;23;20380;-83
2023/01/22 01:11:47;;;;;;;71.43;43.45;;;;;;;-3.75;100.00;103121.66;6115565;23;20016;-83
2023/01/22 01:14:12;;;;;;;76.85;46.15;;;;;;;-3.72;100.00;103115.69;6115078;23;20010;-83
2023/01/22 01:16:38;;;;;;;79.90;45.45;;;;;;;-3.76;100.00;103106.88;6114781;23;20013;-83
2023/01/22 01:19:06;;;;;;;77.50;46.00;;;;;;;-3.82;100.00;103115.28;6117352;23;20089;-83
2023/01/22 01:21:31;;;;;;;72.90;44.40;;;;;;;-3.87;100.00;103101.19;6117080;23;20021;-83
2023/01/22 01:23:57;;;;;;;76.57;45.90;;;;;;;-3.83;100.00;103110.91;6116682;23;20009;-83
2023/01/22 01:26:24;;;;;;;76.20;44.67;;;;;;;-3.87;100.00;103113.31;6116073;23;20389;-83
2023/01/22 01:28:53;;;;;;;77.90;47.28;;;;;;;-3.88;100.00;103112.41;6118010;23;20009;-82
2023/01/22 01:31:20;;;;;;;76.05;45.83;;;;;;;-3.91;100.00;103101.88;6115746;23;20024;-83
2023/01/22 01:33:46;;;;;;;80.78;47.72;;;;;;;-3.96;100.00;103092.97;6117839;23;20009;-82
2023/01/22 01:36:17;;;;;;;79.53;46.70;;;;;;;-3.93;100.00;103100.00;6117045;23;20373;-83
2023/01/22 01:38:43;;;;;;;84.10;48.75;;;;;;;-4.00;100.00;103088.47;6116003;23;20040;-83
2023/01/22 01:41:11;;;;;;;81.22;47.90;;;;;;;-3.97;100.00;103088.59;6115079;23;20016;-83
2023/01/22 01:43:36;;;;;;;81.70;47.42;;;;;;;-3.99;100.00;103090.22;6118033;23;20017;-83
2023/01/22 01:46:03;;;;;;;78.82;45.22;;;;;;;-4.00;100.00;103085.84;6115717;23;20002;-83
2023/01/22 01:48:42;;;;;;;82.82;49.28;;;;;;;-4.01;100.00;103090.19;6116711;23;20006;-82
2023/01/22 01:51:17;;;;;;;80.25;47.83;;;;;;;-4.01;100.00;103087.56;6116148;23;20424;-83
2023/01/22 01:53:44;;;;;;;82.28;48.03;;;;;;;-4.01;100.00;103078.88;6116655;23;20503;-83
2023/01/22 01:56:16;;;;;;;82.47;48.65;;;;;;;-3.93;100.00;103087.00;6116706;23;20094;-82
2023/01/22 01:58:44;;;;;;;82.75;49.00;;;;;;;-3.89;100.00;103076.78;6116852;23;20017;-83
2023/01/22 02:01:14;;;;;;;86.10;48.75;;;;;;;-3.91;100.00;103069.75;6115640;23;20010;-83
2023/01/22 02:03:43;;;;;;;76.07;46.28;;;;;;;-3.90;100.00;103069.81;6114485;23;20336;-83
2023/01/22 02:06:14;;;;;;;74.78;46.53;;;;;;;-3.91;100.00;103070.66;6116070;23;20417;-83
2023/01/22 02:08:42;;;;;;;76.65;46.10;;;;;;;-3.86;100.00;103076.94;6114941;23;20088;-83
2023/01/22 02:11:09;;;;;;;73.28;47.33;;;;;;;-3.88;100.00;103064.69;6115913;23;20005;-83
2023/01/22 02:13:36;;;;;;;74.40;45.63;;;;;;;-3.89;100.00;103055.09;6117758;23;20092;-82
2023/01/22 02:16:02;;;;;;;73.38;44.78;;;;;;;-3.93;100.00;103055.78;6117581;23;20016;-83
2023/01/22 02:18:28;;;;;;;72.03;45.03;;;;;;;-3.98;100.00;103058.19;6123814;23;19998;-83
2023/01/22 02:20:56;;;;;;;72.72;45.03;;;;;;;-3.96;100.00;103066.06;6143372;23;20018;-82
2023/01/22 02:23:22;;;;;;;76.15;46.40;;;;;;;-3.98;100.00;103075.50;6145225;23;20092;-83
2023/01/22 02:25:47;;;;;;;76.32;46.80;;;;;;;-3.95;100.00;103075.66;6146187;23;20231;-82
2023/01/22 02:28:12;;;;;;;71.80;46.40;;;;;;;-3.87;100.00;103076.88;6143626;23;20022;-83
2023/01/22 02:30:38;;;;;;;72.88;45.15;;;;;;;-3.80;100.00;103072.03;6144268;23;20005;-83
2023/01/22 02:33:03;;;;;;;75.45;46.22;;;;;;;-3.73;100.00;103073.16;6138007;23;20010;-83
2023/01/22 02:35:28;;;;;;;71.50;44.53;;;;;;;-3.62;100.00;103079.72;6123805;23;20006;-82
2023/01/22 02:37:53;;;;;;;69.40;43.40;;;;;;;-3.57;100.00;103073.00;6124672;23;20010;-83
2023/01/22 02:40:19;;;;;;;69.15;43.28;;;;;;;-3.52;100.00;103073.19;6123223;23;20033;-83
2023/01/22 02:42:44;;;;;;;63.67;40.97;;;;;;;-3.46;100.00;103072.59;6121398;23;20041;-83
2023/01/22 02:45:10;;;;;;;62.67;40.78;;;;;;;-3.38;100.00;103065.97;6120251;23;20002;-83
2023/01/22 02:47:35;;;;;;;58.40;38.95;;;;;;;-3.33;100.00;103064.44;6120760;23;20037;-83
2023/01/22 02:50:01;;;;;;;55.17;38.22;;;;;;;-3.28;100.00;103063.81;6118982;23;20001;-83
2023/01/22 02:52:26;;;;;;;55.90;38.03;;;;;;;-3.22;100.00;103073.56;6119883;23;20006;-83
2023/01/22 02:54:51;;;;;;;54.83;37.03;;;;;;;-3.13;100.00;103073.97;6119829;23;20093;-83
2023/01/22 02:57:17;;;;;;;54.75;36.42;;;;;;;-3.12;100.00;103065.34;6120144;23;20324;-83
2023/01/22 02:59:42;;;;;;;52.38;35.22;;;;;;;-3.05;100.00;103071.69;6118130;23;20018;-82
2023/01/22 03:02:07;;;;;;;52.15;35.08;;;;;;;-3.05;100.00;103064.75;6116968;23;20081;-83
2023/01/22 03:04:33;;;;;;;48.47;34.00;;;;;;;-3.06;100.00;103065.56;6118501;23;20014;-83
2023/01/22 03:06:58;;;;;;;48.95;34.13;;;;;;;-3.07;100.00;103063.78;6117546;23;20062;-83
2023/01/22 03:09:23;;;;;;;51.13;34.67;;;;;;;-3.09;100.00;103067.19;6116729;23;20057;-83
2023/01/22 03:11:48;;;;;;;45.40;33.78;;;;;;;-3.16;100.00;103059.94;6116545;23;20024;-83
2023/01/22 03:22:28;;;;;;;50.13;33.80;;;;;;;-3.32;100.00;103058.41;6115730;23;20104;-83
2023/01/22 03:24:54;;;;;;;49.75;35.22;;;;;;;-3.36;100.00;103046.09;6114333;23;20128;-83
2023/01/22 03:27:22;;;;;;;49.65;34.40;;;;;;;-3.37;100.00;103057.34;6115903;23;20009;-82
2023/01/22 03:29:48;;;;;;;48.97;34.42;;;;;;;-3.39;100.00;103049.44;6115163;23;20010;-83
2023/01/22 03:32:14;;;;;;;48.58;33.65;;;;;;;-3.46;100.00;103037.00;6115688;23;20034;-82
2023/01/22 03:34:39;;;;;;;51.03;35.78;;;;;;;-3.41;100.00;103038.09;6115822;23;20009;-83
2023/01/22 03:37:06;;;;;;;49.63;34.45;;;;;;;-3.39;100.00;103035.53;6115593;23;20482;-83
2023/01/22 03:39:32;;;;;;;47.80;34.58;;;;;;;-3.40;100.00;103024.25;6114089;23;20163;-83
2023/01/22 03:41:57;;;;;;;48.88;33.83;;;;;;;-3.40;100.00;103020.75;6113728;23;20134;-83
2023/01/22 03:44:23;;;;;;;46.78;33.70;;;;;;;-3.39;100.00;103028.59;6113939;23;20010;-82
2023/01/22 03:46:48;;;;;;;48.20;33.10;;;;;;;-3.45;100.00;103014.47;6115822;23;20005;-83
2023/01/22 03:49:14;;;;;;;49.35;33.80;;;;;;;-3.42;100.00;103030.22;6114447;23;20010;-83
2023/01/22 03:51:40;;;;;;;46.40;33.45;;;;;;;-3.42;100.00;103028.50;6115448;23;20009;-83
2023/01/22 03:54:05;;;;;;;46.28;33.58;;;;;;;-3.42;100.00;103028.50;6114701;23;20033;-83
2023/01/22 03:56:31;;;;;;;44.63;33.45;;;;;;;-3.42;100.00;103032.84;6114516;23;20033;-83
2023/01/22 03:58:57;;;;;;;48.33;34.25;;;;;;;-3.35;100.00;103034.84;6114313;23;20056;-82
2023/01/22 04:01:25;;;;;;;48.47;33.03;;;;;;;-3.32;100.00;103034.97;6114254;23;20133;-83
2023/01/22 04:03:51;;;;;;;43.88;32.05;;;;;;;-3.27;100.00;103038.66;6114692;23;20055;-83
2023/01/22 04:06:17;;;;;;;47.88;34.03;;;;;;;-3.25;100.00;103034.41;6114973;23;20049;-83
2023/01/22 04:08:44;;;;;;;43.00;32.35;;;;;;;-3.21;100.00;103045.84;6113816;23;20418;-83
2023/01/22 04:11:10;;;;;;;42.90;31.50;;;;;;;-3.19;100.00;103038.97;6114702;23;20100;-83
2023/01/22 04:13:38;;;;;;;46.67;32.90;;;;;;;-3.17;100.00;103029.53;6113693;23;20049;-83
2023/01/22 04:16:04;;;;;;;41.90;32.80;;;;;;;-3.26;100.00;103019.59;6114105;23;20087;-83
2023/01/22 04:18:29;;;;;;;44.13;32.88;;;;;;;-3.24;100.00;103027.47;6113369;23;20431;-83
2023/01/22 04:20:55;;;;;;;43.33;31.45;;;;;;;-3.34;100.00;103026.22;6114119;23;20375;-83
2023/01/22 04:23:20;;;;;;;46.97;33.20;;;;;;;-3.41;100.00;103016.38;6114666;23;20612;-83
2023/01/22 04:25:46;;;;;;;44.45;32.33;;;;;;;-3.39;100.00;103030.31;6137286;23;20002;-83
2023/01/22 04:28:13;;;;;;;45.33;32.33;;;;;;;-3.36;100.00;103025.25;6138791;23;20077;-83
2023/01/22 04:30:39;;;;;;;49.00;34.50;;;;;;;-3.41;100.00;103014.66;6140287;23;20020;-83
2023/01/22 04:33:05;;;;;;;45.63;33.00;;;;;;;-3.35;100.00;103021.81;6143943;23;19990;-83
2023/01/22 04:35:31;;;;;;;48.85;33.15;;;;;;;-3.40;100.00;103013.81;6143939;23;19994;-83
2023/01/22 04:37:57;;;;;;;47.40;33.17;;;;;;;-3.31;100.00;103034.13;6140318;23;20037;-83
2023/01/22 04:40:23;;;;;;;48.00;33.97;;;;;;;-3.26;100.00;103027.41;6118984;23;20141;-81
2023/01/22 04:42:48;;;;;;;47.50;34.05;;;;;;;-3.16;100.00;103026.06;6120422;23;20435;-83
2023/01/22 04:45:14;;;;;;;45.53;33.47;;;;;;;-3.15;100.00;103012.22;6120229;23;20115;-83
2023/01/22 04:47:41;;;;;;;46.92;33.15;;;;;;;-3.03;100.00;103021.41;6120127;23;20014;-83
2023/01/22 04:50:08;;;;;;;45.60;32.88;;;;;;;-2.99;100.00;103013.72;6120018;23;20428;-83
2023/01/22 04:52:33;;;;;;;44.65;32.75;;;;;;;-2.98;100.00;103005.94;6124108;23;20669;-83
2023/01/22 04:54:58;;;;;;;46.60;32.15;;;;;;;-2.98;100.00;103005.06;6123886;23;20420;-83
2023/01/22 04:57:24;;;;;;;43.88;31.30;;;;;;;-2.96;100.00;103006.91;6123051;23;20057;-83
2023/01/22 04:59:49;;;;;;;42.75;31.15;;;;;;;-2.95;100.00;103005.19;6121458;23;20006;-83
2023/01/22 05:02:14;;;;;;;40.75;30.73;;;;;;;-2.93;100.00;103006.13;6119052;23;20005;-83
2023/01/22 05:04:39;;;;;;;39.67;30.27;;;;;;;-2.92;100.00;103005.31;6118673;23;20254;-83
2023/01/22 05:07:05;;;;;;;38.97;28.95;;;;;;;-2.92;100.00;103001.00;6118903;23;20006;-83
2023/01/22 05:09:30;;;;;;;38.05;29.90;;;;;;;-2.92;100.00;103002.72;6119683;23;20033;-83
2023/01/22 05:11:55;;;;;;;39.67;29.23;;;;;;;-2.94;100.00;103010.47;6119769;23;20009;-83
2023/01/22 05:14:21;;;;;;;39.97;29.13;;;;;;;-2.99;100.00;103001.56;6117864;23;20398;-83
2023/01/22 05:16:47;;;;;;;38.30;30.00;;;;;;;-2.98;100.00;103012.88;6120585;23;20033;-83
2023/01/22 05:19:13;;;;;;;40.55;27.98;;;;;;;-2.98;100.00;103012.88;6119836;23;19998;-83
2023/01/22 05:21:38;;;;;;;36.78;26.63;;;;;;;-3.02;100.00;103010.16;6118939;23;20013;-83
2023/01/22 05:24:03;;;;;;;37.45;27.92;;;;;;;-3.11;100.00;103001.09;6117855;23;20018;-83
2023/01/22 05:26:29;;;;;;;37.60;28.25;;;;;;;-3.02;100.00;103017.97;6119219;23;20014;-83
2023/01/22 05:28:54;;;;;;;38.75;28.38;;;;;;;-2.95;100.00;103018.22;6117561;23;20037;-83
2023/01/22 05:31:19;;;;;;;37.25;28.15;;;;;;;-2.91;100.00;103023.63;6117155;23;20013;-83
2023/01/22 05:33:45;;;;;;;38.70;29.17;;;;;;;-2.88;100.00;103025.47;6118126;23;20439;-83
2023/01/22 05:36:11;;;;;;;39.83;27.67;;;;;;;-2.89;100.00;103015.84;6117916;23;20614;-83
2023/01/22 05:38:37;;;;;;;35.55;27.25;;;;;;;-2.82;100.00;103033.50;6113378;23;20029;-82
2023/01/22 05:41:02;;;;;;;37.05;27.52;;;;;;;-2.82;100.00;103028.28;6112703;23;20033;-83
2023/01/22 05:43:28;;;;;;;38.92;28.70;;;;;;;-2.78;100.00;103035.41;6117474;23;20017;-83
2023/01/22 05:45:53;;;;;;;36.00;27.17;;;;;;;-2.82;100.00;103030.91;6116971;23;20060;-83
2023/01/22 05:48:18;;;;;;;37.28;26.58;;;;;;;-2.74;100.00;103036.41;6114517;23;20006;-83
2023/01/22 05:50:43;;;;;;;34.47;25.58;;;;;;;-2.73;100.00;103036.47;6116995;23;20041;-83
2023/01/22 05:53:09;;;;;;;35.17;26.40;;;;;;;-2.71;100.00;103037.44;6114780;23;20010;-83
2023/01/22 05:55:34;;;;;;;34.17;25.58;;;;;;;-2.69;100.00;103038.38;6117621;23;20014;-83
2023/01/22 05:58:00;;;;;;;31.42;24.30;;;;;;;-2.69;100.00;103040.97;6115709;23;20149;-83
2023/01/22 06:00:26;;;;;;;30.80;24.38;;;;;;;-2.68;100.00;103037.53;6115548;23;20006;-83
2023/01/22 06:02:58;;;;;;;34.53;26.08;;;;;;;-2.67;100.00;103043.66;6116914;23;20005;-83
2023/01/22 06:05:24;;;;;;;34.63;25.58;;;;;;;-2.70;100.00;103034.00;6115153;23;20010;-83
2023/01/22 06:07:49;;;;;;;32.83;24.83;;;;;;;-2.66;100.00;103035.00;6115640;23;20096;-83
2023/01/22 06:10:16;;;;;;;30.60;24.35;;;;;;;-2.65;100.00;103037.66;6118078;23;20557;-83
2023/01/22 06:12:41;;;;;;;33.25;24.95;;;;;;;-2.65;100.00;103026.34;6116075;23;20467;-83
2023/01/22 06:15:07;;;;;;;34.78;25.15;;;;;;;-2.63;100.00;103036.00;6116219;23;20005;-83
2023/01/22 06:17:32;;;;;;;30.48;24.60;;;;;;;-2.64;100.00;103033.31;6116562;23;20452;-83
2023/01/22 06:19:57;;;;;;;32.85;24.35;;;;;;;-2.62;100.00;103037.78;6117204;23;19998;-82
2023/01/22 06:22:23;;;;;;;30.58;23.73;;;;;;;-2.62;100.00;103037.78;6116242;23;20009;-83
2023/01/22 06:24:48;;;;;;;31.50;24.52;;;;;;;-2.61;100.00;103039.53;6115418;23;20082;-83
2023/01/22 06:27:13;;;;;;;31.48;23.65;;;;;;;-2.63;100.00;103037.72;6112981;23;20022;-83
2023/01/22 06:29:39;;;;;;;32.58;24.15;;;;;;;-2.70;100.00;103034.00;6115327;23;20013;-83
2023/01/22 06:32:04;;;;;;;29.75;23.77;;;;;;;-2.60;100.00;103048.25;6117980;23;20035;-83
2023/01/22 06:34:29;;;;;;;31.17;23.73;;;;;;;-2.61;100.00;103038.66;6116704;23;20009;-83
2023/01/22 06:36:55;;;;;;;32.30;24.88;;;;;;;-2.64;100.00;103038.53;6131042;23;19990;-83
2023/01/22 06:39:20;;;;;;;32.17;24.98;;;;;;;-2.59;100.00;103043.13;6144837;23;20001;-83
2023/01/22 06:41:47;;;;;;;31.35;25.13;;;;;;;-2.58;100.00;103044.00;6146200;23;19990;-84
2023/01/22 06:44:12;;;;;;;30.77;24.63;;;;;;;-2.70;100.00;103023.56;6133014;23;20065;-83
2023/01/22 06:46:37;;;;;;;32.90;24.52;;;;;;;-2.58;100.00;103041.41;6122177;23;20218;-83
2023/01/22 06:49:03;;;;;;;35.88;25.55;;;;;;;-2.57;100.00;103044.06;6117948;23;20086;-83
2023/01/22 06:51:29;;;;;;;30.95;24.98;;;;;;;-2.59;100.00;103050.94;6119035;23;20081;-83
2023/01/22 06:53:55;;;;;;;32.25;25.42;;;;;;;-2.61;100.00;103047.38;6120150;23;20010;-83
2023/01/22 06:56:20;;;;;;;30.83;24.15;;;;;;;-2.57;100.00;103056.19;6119267;23;20021;-82
2023/01/22 06:58:45;;;;;;;31.58;25.10;;;;;;;-2.59;100.00;103045.72;6119246;23;19998;-84
2023/01/22 07:01:11;;;;;;;32.75;25.45;;;;;;;-2.60;100.00;103054.34;6120389;23;20009;-83
2023/01/22 07:03:36;;;;;;;32.47;25.80;;;;;;;-2.58;100.00;103060.53;6122506;23;20013;-84
2023/01/22 07:06:03;;;;;;;33.20;26.15;;;;;;;-2.56;100.00;103056.25;6121781;23;20097;-89
2023/01/22 07:08:31;;;;;;;32.05;25.88;;;;;;;-2.56;100.00;103058.84;6128353;23;20076;-89
2023/01/22 07:10:56;;;;;;;35.17;26.50;;;;;;;-2.54;100.00;103056.34;6125412;23;20115;-90
2023/01/22 07:13:22;;;;;;;33.03;26.60;;;;;;;-2.58;100.00;103050.09;6126962;23;20464;-88
2023/01/22 07:15:47;;;;;;;34.90;26.45;;;;;;;-2.52;100.00;103060.75;6129919;23;20036;-89
2023/01/22 07:18:13;;;;;;;35.08;26.77;;;;;;;-2.47;100.00;103062.66;6132418;23;19994;-86
2023/01/22 07:20:41;;;;;;;36.40;26.83;;;;;;;-2.47;100.00;103058.31;6130167;23;20021;-82
2023/01/22 07:23:07;;;;;;;34.92;27.52;;;;;;;-2.48;100.00;103058.28;6131297;23;20163;-87
2023/01/22 07:25:32;;;;;;;34.95;26.45;;;;;;;-2.47;100.00;103058.31;6130782;23;20073;-84
2023/01/22 07:28:01;;;;;;;35.47;27.58;;;;;;;-2.46;100.00;103060.13;6117093;23;20009;-88
2023/01/22 07:30:28;;;;;;;36.72;27.88;;;;;;;-2.45;100.00;103055.78;6118010;23;20431;-88
2023/01/22 07:32:56;;;;;;;32.92;26.83;;;;;;;-2.44;100.00;103061.06;6118041;23;20013;-88
2023/01/22 07:35:21;;;;;;;32.85;26.38;;;;;;;-2.41;100.00;103060.28;6118412;23;20006;-90
2023/01/22 07:37:54;;;;;;;35.35;27.23;;;;;;;-2.45;100.00;103061.88;6116899;23;20020;-86
2023/01/22 07:40:19;;;;;;;34.22;27.02;;;;;;;-2.46;100.00;103056.63;6115981;23;20013;-87
2023/01/22 07:42:45;;;;;;;32.55;27.00;;;;;;;-2.44;100.00;103061.06;6118505;23;20006;-84
2023/01/22 07:45:10;;;;;;;36.30;26.85;;;;;;;-2.40;100.00;103070.78;6116711;23;20002;-82
2023/01/22 07:47:35;;;;;;;33.58;26.20;;;;;;;-2.38;100.00;103068.22;6116497;23;20002;-86
2023/01/22 07:50:01;;;;;;;35.53;27.20;;;;;;;-2.35;100.00;103073.56;6118485;23;20013;-86
2023/01/22 07:52:27;;;;;;;34.60;27.30;;;;;;;-2.36;100.00;103070.06;6119886;23;20029;-88
2023/01/22 07:54:52;;;;;;;36.92;26.98;;;;;;;-2.35;100.00;103070.94;6115039;23;20376;-84
2023/01/22 07:57:17;;;;;;;33.88;26.45;;;;;;;-2.32;100.00;103078.88;6116663;23;20064;-87
2023/01/22 07:59:43;;;;;;;33.67;27.33;;;;;;;-2.30;100.00;103082.44;6117420;23;20016;-84
2023/01/22 08:02:13;;;;;;;33.17;26.77;;;;;;;-2.31;100.00;103068.50;6114478;23;20021;-90
2023/01/22 08:04:39;;;;;;;36.03;26.08;;;;;;;-2.27;100.00;103079.94;6117226;23;20534;-87
2023/01/22 08:07:05;;;;;;;34.35;27.10;;;;;;;-2.24;100.00;103080.06;6113690;23;20426;-85
2023/01/22 08:09:30;;;;;;;35.58;26.63;;;;;;;-2.21;100.00;103076.69;6117132;23;20010;-88
2023/01/22 08:11:55;;;;;;;32.85;26.30;;;;;;;-2.18;100.00;103074.19;6117060;23;20024;-87
2023/01/22 08:14:20;;;;;;;36.70;27.15;;;;;;;-2.15;100.00;103085.63;6116676;23;20866;-88
2023/01/22 08:16:46;;;;;;;34.05;26.38;;;;;;;-2.10;100.00;103086.69;6115399;23;20010;-87
2023/01/22 08:19:11;;;;;;;31.83;25.67;;;;;;;-2.06;100.00;103085.97;6115446;23;20101;-87
2023/01/22 08:21:36;;;;;;;32.00;25.48;;;;;;;-2.07;100.00;103075.47;6115336;23;20018;-88
2023/01/22 08:24:03;;;;;;;30.83;25.35;;;;;;;-2.02;100.00;103086.97;6114913;23;20017;-87
2023/01/22 08:26:29;;;;;;;31.75;25.23;;;;;;;-1.98;100.00;103091.47;6112013;23;20748;-87
2023/01/22 08:28:54;;;;;;;34.90;26.23;;;;;;;-1.97;100.00;103088.00;6115306;23;20045;-87
2023/01/22 08:31:19;;;;;;;32.33;24.67;;;;;;;-1.93;100.00;103089.03;6133844;23;20034;-87
2023/01/22 08:33:45;;;;;;;29.88;25.67;;;;;;;-1.91;100.00;103097.81;6145293;23;20029;-87
2023/01/22 08:36:11;;;;;;;31.15;24.67;;;;;;;-1.91;100.00;103097.81;6139658;23;20103;-87
2023/01/22 08:38:36;;;;;;;29.85;25.85;;;;;;;-1.86;100.00;103093.63;6143543;23;20353;-88
2023/01/22 08:41:01;;;;;;;29.17;25.45;;;;;;;-1.80;100.00;103099.06;6145608;23;20000;-87
2023/01/22 08:43:28;;;;;;;31.23;25.45;;;;;;;-1.83;100.00;103092.03;6136045;23;20016;-88
2023/01/22 08:45:54;;;;;;;30.55;24.70;;;;;;;-1.72;100.00;103102.84;6119285;23;20037;-87
2023/01/22 08:48:19;;;;;;;28.48;24.20;;;;;;;-1.66;100.00;103100.47;6120296;23;20002;-88
2023/01/22 08:50:44;;;;;;;30.67;24.20;;;;;;;-1.62;100.00;103093.63;6121119;23;20006;-87
2023/01/22 08:53:10;;;;;;;27.27;23.65;;;;;;;-1.58;100.00;103098.13;6118914;23;20028;-84
2023/01/22 08:55:35;;;;;;;28.80;22.98;;;;;;;-1.62;100.00;103089.28;6118525;23;20332;-88
2023/01/22 08:58:00;;;;;;;26.77;23.05;;;;;;;-1.56;100.00;103093.84;6117327;23;20010;-84
2023/01/22 09:00:26;;;;;;;26.38;22.55;;;;;;;-1.57;100.00;103107.72;6116918;23;20010;-84
2023/01/22 09:02:55;;;;;;;24.60;21.80;;;;;;;-1.64;100.00;103098.78;6118037;23;20751;-88
2023/01/22 09:05:21;;;;;;;24.77;22.13;;;;;;;-1.62;100.00;103110.19;6117581;23;20056;-84
2023/01/22 09:07:46;;;;;;;24.85;21.63;;;;;;;-1.63;100.00;103110.09;6116952;23;20006;-84
2023/01/22 09:10:11;;;;;;;24.15;21.55;;;;;;;-1.73;100.00;103098.47;6123551;23;20143;-84
2023/01/22 09:12:38;;;;;;;26.27;21.90;;;;;;;-1.62;100.00;103112.81;6118863;23;20009;-84
2023/01/22 09:15:04;;;;;;;24.98;21.48;;;;;;;-1.65;100.00;103098.75;6115669;23;20101;-84
2023/01/22 09:17:29;;;;;;;23.17;20.55;;;;;;;-1.62;100.00;103101.47;6116501;23;20041;-84
2023/01/22 09:19:55;;;;;;;24.00;20.63;;;;;;;-1.61;100.00;103104.13;6117072;23;20010;-84
2023/01/22 09:22:20;;;;;;;23.27;20.45;;;;;;;-1.58;100.00;103104.25;6113368;23;20021;-84
2023/01/22 09:24:45;;;;;;;25.23;19.85;;;;;;;-1.56;100.00;103113.00;6117955;23;20006;-84
2023/01/22 09:27:12;;;;;;;24.73;20.13;;;;;;;-1.54;100.00;103108.72;6115260;23;20081;-84
2023/01/22 09:29:38;;;;;;;22.38;19.98;;;;;;;-1.49;100.00;103105.41;6115520;23;20124;-84
2023/01/22 09:32:04;;;;;;;22.38;19.08;;;;;;;-1.43;100.00;103108.22;6115202;23;20325;-83
2023/01/22 09:34:29;;;;;;;21.73;19.13;;;;;;;-1.49;100.00;103097.56;6116040;23;20002;-84
2023/01/22 09:36:54;;;;;;;20.95;18.67;;;;;;;-1.47;100.00;103114.16;6115419;23;20006;-84
2023/01/22 09:39:20;;;;;;;21.48;19.23;;;;;;;-1.53;100.00;103107.00;6118136;23;20013;-84
2023/01/22 09:41:50;;;;;;;23.95;19.15;;;;;;;-1.56;100.00;103102.56;6116976;23;20572;-84
2023/01/22 09:44:19;;;;;;;25.58;20.20;;;;;;;-1.47;100.00;103112.44;6116771;23;20080;-84
2023/01/22 09:46:48;;;;;;;23.08;19.88;;;;;;;-1.45;100.00;103100.34;6118149;23;20541;-84
2023/01/22 09:49:16;;;;;;;22.55;18.30;;;;;;;-1.44;100.00;103104.72;6117903;23;20534;-83
2023/01/22 09:51:51;;;;;;;23.13;19.67;;;;;;;-1.40;100.00;103109.22;6117342;23;20025;-84
2023/01/22 09:54:16;;;;;;;23.67;19.45;;;;;;;-1.48;100.00;103100.22;6117823;23;20580;-84
2023/01/22 09:56:45;;;;;;;26.27;19.75;;;;;;;-1.42;100.00;103112.59;6115995;23;20077;-84
2023/01/22 09:59:16;;;;;;;23.55;18.38;;;;;;;-1.42;100.00;103121.34;6115631;23;20006;-83
2023/01/22 10:01:45;;;;;;;21.73;19.20;;;;;;;-1.42;100.00;103130.88;6116468;23;20356;-84
2023/01/22 10:04:23;;;;;;;23.80;19.15;;;;;;;-1.44;100.00;103117.78;6118002;23;20032;-84
2023/01/22 10:06:51;;;;;;;22.08;19.33;;;;;;;-1.43;100.00;103118.66;6118236;23;20013;-84
2023/01/22 10:09:19;;;;;;;21.52;18.58;;;;;;;-1.44;100.00;103120.38;6117291;23;20511;-84
2023/01/22 10:11:50;;;;;;;20.25;18.15;;;;;;;-1.43;100.00;103129.09;6118856;23;20001;-84
2023/01/22 10:14:20;;;;;;;23.08;18.77;;;;;;;-1.49;100.00;103114.13;6116882;23;20005;-84
2023/01/22 10:16:45;;;;;;;21.00;18.70;;;;;;;-1.39;100.00;103131.88;6114637;23;20328;-83
2023/01/22 10:19:23;;;;;;;21.80;18.02;;;;;;;-1.36;100.00;103125.88;6114975;23;20006;-84
2023/01/22 10:21:54;;;;;;;21.10;18.52;;;;;;;-1.32;100.00;103135.59;6117564;23;20014;-83
2023/01/22 10:24:19;;;;;;;21.85;18.45;;;;;;;-1.28;100.00;103125.31;6116347;23;20075;-83
2023/01/22 10:26:47;;;;;;;21.88;18.40;;;;;;;-1.19;100.00;103129.97;6115877;23;20006;-83
2023/01/22 10:29:28;;;;;;;21.38;18.73;;;;;;;-1.17;100.00;103125.69;6116078;23;20436;-83
2023/01/22 10:31:59;;;;;;;20.65;18.45;;;;;;;-1.16;100.00;103135.28;6116092;23;20025;-83
2023/01/22 10:34:33;;;;;;;21.70;18.55;;;;;;;-1.15;100.00;103125.72;6114798;23;20077;-83
2023/01/22 10:36:59;;;;;;;;;;;;;;;-1.02;100.00;103125.28;6113389;23;20009;-83
2023/01/22 10:39:25;;;;;;;20.23;18.13;;;;;;;-1.18;100.00;103125.63;6127219;23;19962;-83
2023/01/22 10:41:59;;;;;;;19.70;17.60;;;;;;;-1.27;100.00;103111.41;6142000;23;20456;-84
2023/01/22 10:44:25;;;;;;;19.92;17.92;;;;;;;-1.19;100.00;103119.50;6141895;23;20014;-84
2023/01/22 10:46:52;;;;;;;22.98;18.52;;;;;;;-1.18;100.00;103117.78;6145733;23;20090;-84
2023/01/22 10:49:23;;;;;;;21.58;18.15;;;;;;;-1.15;100.00;103126.63;6142331;23;20041;-84
2023/01/22 10:51:55;;;;;;;20.90;18.67;;;;;;;-1.13;100.00;103124.03;6142738;23;20066;-84
2023/01/22 10:54:33;;;;;;;20.52;18.23;;;;;;;-1.10;100.00;103117.19;6118314;23;20013;-84
2023/01/22 10:57:19;;;;;;;19.92;17.67;;;;;;;-1.06;100.00;103119.06;6118426;23;20005;-84
2023/01/22 10:59:52;;;;;;;22.25;19.13;;;;;;;-1.02;100.00;103120.94;6120546;23;20002;-84
2023/01/22 11:02:22;;;;;;;19.45;17.45;;;;;;;-1.03;100.00;103113.97;6120314;23;20333;-84
2023/01/22 11:04:48;;;;;;;20.52;18.52;;;;;;;-1.02;100.00;103120.06;6119787;23;20005;-84
2023/01/22 11:07:19;;;;;;;23.45;17.70;;;;;;;-0.99;100.00;103119.28;6116562;23;20017;-84